createdAt,value
2018-08-11T00:01:05.886Z,17.30
2018-08-11T00:03:34.369Z,17.20
2018-08-11T00:06:02.873Z,17.20
2018-08-11T00:08:31.300Z,17.10
2018-08-11T00:13:42.777Z,17.00
2018-08-11T00:16:11.289Z,17.00
2018-08-11T00:18:39.735Z,16.90
2018-08-11T00:21:08.216Z,16.90
2018-08-11T00:23:36.662Z,16.80
2018-08-11T00:26:05.623Z,16.80
2018-08-11T00:28:34.033Z,16.70
2018-08-11T00:31:04.125Z,16.70
2018-08-11T00:33:33.472Z,16.70
2018-08-11T00:36:01.970Z,16.70
2018-08-11T00:38:30.403Z,16.60
2018-08-11T00:40:58.903Z,16.60
2018-08-11T00:43:27.324Z,16.60
2018-08-11T00:45:55.744Z,16.60
2018-08-11T00:48:24.141Z,16.70
2018-08-11T00:50:52.620Z,16.70
2018-08-11T00:53:21.010Z,16.70
2018-08-11T00:55:49.479Z,16.70
2018-08-11T00:58:17.930Z,16.70
2018-08-11T01:00:46.383Z,16.60
2018-08-11T01:03:14.831Z,16.70
2018-08-11T01:05:43.257Z,16.70
2018-08-11T01:08:19.344Z,16.80
2018-08-11T01:10:48.576Z,16.80
2018-08-11T01:13:16.962Z,16.80
2018-08-11T01:15:45.415Z,16.90
2018-08-11T01:18:13.847Z,16.90
2018-08-11T01:20:42.331Z,17.00
2018-08-11T01:23:10.776Z,17.00
2018-08-11T01:25:45.709Z,17.20
2018-08-11T01:28:14.145Z,17.30
2018-08-11T01:30:42.563Z,17.30
2018-08-11T01:33:10.974Z,17.40
2018-08-11T01:35:39.396Z,17.40
2018-08-11T01:38:07.863Z,17.40
2018-08-11T01:40:36.284Z,17.40
2018-08-11T01:43:04.660Z,17.40
2018-08-11T01:45:33.068Z,17.30
2018-08-11T01:48:01.511Z,17.30
2018-08-11T01:50:29.923Z,17.30
2018-08-11T01:52:58.354Z,17.30
2018-08-11T01:55:27.919Z,17.30
2018-08-11T01:57:56.390Z,17.30
2018-08-11T02:00:24.838Z,17.30
2018-08-11T02:02:53.209Z,17.30
2018-08-11T02:05:21.659Z,17.30
2018-08-11T02:07:50.047Z,17.30
2018-08-11T02:10:20.076Z,17.30
2018-08-11T02:12:48.838Z,17.30
2018-08-11T02:15:17.476Z,17.30
2018-08-11T02:17:45.940Z,17.30
2018-08-11T02:20:16.966Z,17.20
2018-08-11T02:22:46.536Z,17.30
2018-08-11T02:25:15.003Z,17.30
2018-08-11T02:27:43.410Z,17.30
2018-08-11T02:30:13.987Z,17.30
2018-08-11T02:32:42.585Z,17.30
2018-08-11T02:35:11.930Z,17.30
2018-08-11T02:37:40.577Z,17.40
2018-08-11T02:40:10.576Z,17.40
2018-08-11T02:42:39.017Z,17.40
2018-08-11T02:45:08.706Z,17.40
2018-08-11T02:47:37.093Z,17.40
2018-08-11T02:50:07.320Z,17.40
2018-08-11T02:52:38.021Z,17.50
2018-08-11T02:55:07.067Z,17.40
2018-08-11T02:57:36.846Z,17.50
2018-08-11T03:00:08.968Z,17.50
2018-08-11T03:02:37.677Z,17.60
2018-08-11T03:05:05.979Z,17.60
2018-08-11T03:07:36.100Z,17.60
2018-08-11T03:10:05.432Z,17.60
2018-08-11T03:12:33.841Z,17.60
2018-08-11T03:15:02.286Z,17.60
2018-08-11T03:17:30.732Z,17.60
2018-08-11T03:19:59.155Z,17.60
2018-08-11T03:22:27.574Z,17.50
2018-08-11T03:24:56.001Z,17.50
2018-08-11T03:27:24.375Z,17.50
2018-08-11T03:29:52.752Z,17.50
2018-08-11T03:32:21.149Z,17.40
2018-08-11T03:34:49.546Z,17.30
2018-08-11T03:37:18.787Z,17.30
2018-08-11T03:39:47.260Z,17.20
2018-08-11T03:42:15.677Z,17.10
2018-08-11T03:44:44.060Z,17.00
2018-08-11T03:47:12.460Z,17.00
2018-08-11T03:49:40.886Z,17.00
2018-08-11T03:52:09.320Z,17.00
2018-08-11T03:54:37.840Z,17.00
2018-08-11T03:57:06.406Z,17.00
2018-08-11T03:59:34.894Z,17.00
2018-08-11T04:02:03.456Z,17.00
2018-08-11T04:04:31.872Z,17.00
2018-08-11T04:07:00.349Z,17.00
2018-08-11T04:09:28.780Z,17.00
2018-08-11T04:11:57.245Z,17.00
2018-08-11T04:14:25.653Z,17.00
2018-08-11T04:16:54.047Z,17.00
2018-08-11T04:19:22.452Z,17.00
2018-08-11T04:21:50.843Z,17.00
2018-08-11T04:24:19.277Z,16.90
2018-08-11T04:26:48.560Z,16.90
2018-08-11T04:29:17.501Z,16.90
2018-08-11T04:31:46.009Z,16.90
2018-08-11T04:34:14.487Z,16.90
2018-08-11T04:36:44.379Z,16.90
2018-08-11T04:39:17.556Z,16.90
2018-08-11T04:41:45.968Z,16.90
2018-08-11T04:44:17.139Z,16.90
2018-08-11T04:46:45.685Z,16.90
2018-08-11T04:49:14.675Z,16.90
2018-08-11T04:51:49.468Z,16.90
2018-08-11T04:54:17.957Z,16.90
2018-08-11T04:56:46.358Z,16.90
2018-08-11T04:59:14.853Z,17.00
2018-08-11T05:01:43.260Z,16.90
2018-08-11T05:04:11.697Z,17.00
2018-08-11T05:06:41.038Z,17.00
2018-08-11T05:09:10.160Z,17.20
2018-08-11T05:11:38.580Z,17.30
2018-08-11T05:14:07.184Z,17.30
2018-08-11T05:16:35.608Z,17.40
2018-08-11T05:19:04.106Z,17.50
2018-08-11T05:21:32.618Z,17.50
2018-08-11T05:24:01.142Z,17.60
2018-08-11T05:26:29.642Z,17.60
2018-08-11T05:28:59.107Z,17.70
2018-08-11T05:31:27.538Z,17.70
2018-08-11T05:33:55.957Z,17.70
2018-08-11T05:36:24.417Z,17.80
2018-08-11T05:38:52.855Z,17.80
2018-08-11T05:41:21.793Z,17.90
2018-08-11T05:43:50.277Z,17.90
2018-08-11T05:46:24.355Z,17.90
2018-08-11T05:48:52.707Z,18.00
2018-08-11T05:51:21.745Z,18.00
2018-08-11T05:53:50.208Z,18.00
2018-08-11T05:56:18.703Z,18.00
2018-08-11T05:58:47.973Z,18.00
2018-08-11T06:01:16.446Z,18.00
2018-08-11T06:03:44.927Z,18.00
2018-08-11T06:06:13.424Z,18.00
2018-08-11T06:08:41.918Z,18.00
2018-08-11T06:11:10.331Z,18.10
2018-08-11T06:13:38.835Z,18.20
2018-08-11T06:16:07.319Z,18.30
2018-08-11T06:18:36.668Z,18.40
2018-08-11T06:21:05.267Z,18.40
2018-08-11T06:23:33.984Z,18.40
2018-08-11T06:26:02.419Z,18.50
2018-08-11T06:28:30.905Z,18.60
2018-08-11T06:31:03.127Z,18.60
2018-08-11T06:33:31.597Z,18.60
2018-08-11T06:36:00.089Z,18.40
2018-08-11T06:38:28.512Z,18.20
2018-08-11T06:40:57.062Z,18.20
2018-08-11T06:43:28.304Z,18.20
2018-08-11T06:45:56.743Z,18.10
2018-08-11T06:48:25.131Z,18.10
2018-08-11T06:50:53.663Z,18.20
2018-08-11T06:53:23.729Z,18.30
2018-08-11T06:55:52.958Z,18.30
2018-08-11T06:58:21.303Z,18.50
2018-08-11T07:00:49.696Z,18.50
2018-08-11T07:03:18.121Z,18.60
2018-08-11T07:05:46.628Z,18.60
2018-08-11T07:08:15.098Z,18.60
2018-08-11T07:10:43.694Z,18.60
2018-08-11T07:13:12.735Z,18.50
2018-08-11T07:15:41.095Z,18.40
2018-08-11T07:18:09.626Z,18.50
2018-08-11T07:20:38.033Z,18.60
2018-08-11T07:23:06.552Z,18.60
2018-08-11T07:25:34.993Z,18.70
2018-08-11T07:28:03.414Z,18.80
2018-08-11T07:30:31.796Z,18.90
2018-08-11T07:33:00.183Z,19.00
2018-08-11T07:35:28.618Z,19.30
2018-08-11T07:37:57.117Z,19.50
2018-08-11T07:40:25.637Z,19.50
2018-08-11T07:42:54.135Z,19.40
2018-08-11T07:45:22.579Z,19.30
2018-08-11T07:47:51.499Z,19.20
2018-08-11T07:50:19.943Z,19.30
2018-08-11T07:52:48.452Z,19.40
2018-08-11T07:55:16.960Z,19.50
2018-08-11T07:57:45.368Z,19.70
2018-08-11T08:00:13.964Z,19.90
2018-08-11T08:02:42.599Z,20.10
2018-08-11T08:05:11.030Z,20.30
2018-08-11T08:07:39.560Z,20.50
2018-08-11T08:10:08.172Z,20.50
2018-08-11T08:12:36.563Z,20.60
2018-08-11T08:15:05.460Z,20.70
2018-08-11T08:17:40.222Z,20.80
2018-08-11T08:20:08.661Z,20.80
2018-08-11T08:22:37.187Z,20.90
2018-08-11T08:25:06.108Z,20.80
2018-08-11T08:27:34.605Z,20.80
2018-08-11T08:30:03.172Z,20.90
2018-08-11T08:32:31.589Z,21.00
2018-08-11T08:34:59.945Z,21.10
2018-08-11T08:37:28.343Z,21.30
2018-08-11T08:39:56.803Z,21.40
2018-08-11T08:42:25.412Z,21.50
2018-08-11T08:44:53.815Z,21.60
2018-08-11T08:47:22.237Z,21.80
2018-08-11T08:49:50.616Z,21.70
2018-08-11T08:52:19.017Z,22.00
2018-08-11T08:54:47.852Z,22.20
2018-08-11T08:57:16.223Z,22.40
2018-08-11T08:59:44.703Z,22.60
2018-08-11T09:02:19.739Z,22.80
2018-08-11T09:04:48.185Z,23.00
2018-08-11T09:07:16.595Z,23.00
2018-08-11T09:09:46.021Z,22.90
2018-08-11T09:12:14.392Z,22.70
2018-08-11T09:14:42.761Z,22.30
2018-08-11T09:17:11.312Z,22.10
2018-08-11T09:19:39.705Z,21.90
2018-08-11T09:22:08.195Z,21.80
2018-08-11T09:24:36.633Z,21.90
2018-08-11T09:27:05.121Z,22.30
2018-08-11T09:29:33.582Z,23.00
2018-08-11T09:32:02.004Z,23.50
2018-08-11T09:34:30.406Z,23.80
2018-08-11T09:36:58.904Z,23.50
2018-08-11T09:39:27.341Z,23.00
2018-08-11T09:41:55.830Z,22.80
2018-08-11T09:44:25.071Z,22.70
2018-08-11T09:46:53.584Z,23.00
2018-08-11T09:49:22.015Z,23.40
2018-08-11T09:51:50.660Z,23.50
2018-08-11T09:54:19.659Z,23.30
2018-08-11T09:56:48.032Z,23.00
2018-08-11T09:59:16.483Z,22.90
2018-08-11T10:01:46.815Z,23.20
2018-08-11T10:04:15.847Z,23.80
2018-08-11T10:06:44.298Z,23.80
2018-08-11T10:09:13.330Z,23.60
2018-08-11T10:11:41.788Z,23.60
2018-08-11T10:14:10.209Z,23.60
2018-08-11T10:16:38.596Z,23.70
2018-08-11T10:19:07.062Z,23.70
2018-08-11T10:21:35.513Z,23.40
2018-08-11T10:24:03.989Z,23.10
2018-08-11T10:26:32.393Z,22.80
2018-08-11T10:29:00.869Z,22.70
2018-08-11T10:31:29.315Z,22.30
2018-08-11T10:33:57.726Z,22.30
2018-08-11T10:36:26.611Z,22.60
2018-08-11T10:38:55.094Z,23.10
2018-08-11T10:41:23.519Z,23.50
2018-08-11T10:43:51.932Z,23.90
2018-08-11T10:46:20.362Z,24.40
2018-08-11T10:48:48.888Z,24.60
2018-08-11T10:51:17.333Z,24.80
2018-08-11T10:53:45.721Z,25.10
2018-08-11T10:56:14.523Z,25.20
2018-08-11T10:58:43.124Z,25.30
2018-08-11T11:01:11.484Z,25.60
2018-08-11T11:03:40.052Z,25.80
2018-08-11T11:06:08.550Z,25.60
2018-08-11T11:08:38.066Z,25.40
2018-08-11T11:11:06.424Z,25.20
2018-08-11T11:13:34.962Z,25.40
2018-08-11T11:16:03.355Z,25.60
2018-08-11T11:18:31.840Z,25.70
2018-08-11T11:21:00.244Z,26.20
2018-08-11T11:23:28.678Z,26.70
2018-08-11T11:25:57.173Z,26.90
2018-08-11T11:28:25.589Z,26.60
2018-08-11T11:30:54.026Z,25.90
2018-08-11T11:33:22.576Z,25.50
2018-08-11T11:35:50.993Z,25.00
2018-08-11T11:38:19.440Z,24.50
2018-08-11T11:40:47.934Z,24.40
2018-08-11T11:43:16.344Z,24.40
2018-08-11T11:45:47.751Z,24.40
2018-08-11T11:48:16.122Z,24.80
2018-08-11T11:50:44.529Z,25.50
2018-08-11T11:53:12.955Z,25.90
2018-08-11T11:55:41.581Z,26.00
2018-08-11T11:58:09.988Z,26.20
2018-08-11T12:00:38.431Z,26.70
2018-08-11T12:03:06.838Z,28.10
2018-08-11T12:05:41.598Z,30.60
2018-08-11T12:08:10.025Z,32.60
2018-08-11T12:10:38.393Z,31.90
2018-08-11T12:13:07.027Z,32.90
2018-08-11T12:15:35.376Z,34.40
2018-08-11T12:18:03.837Z,35.50
2018-08-11T12:20:32.282Z,36.50
2018-08-11T12:23:06.916Z,34.80
2018-08-11T12:25:35.359Z,34.80
2018-08-11T12:28:03.857Z,32.30
2018-08-11T12:30:32.356Z,30.00
2018-08-11T12:33:00.759Z,28.80
2018-08-11T12:35:29.271Z,28.80
2018-08-11T12:37:57.773Z,30.70
2018-08-11T12:40:26.139Z,32.60
2018-08-11T12:42:54.564Z,34.30
2018-08-11T12:45:22.967Z,35.60
2018-08-11T12:47:51.359Z,35.00
2018-08-11T12:50:19.809Z,34.10
2018-08-11T12:52:48.182Z,33.30
2018-08-11T12:55:16.607Z,33.60
2018-08-11T12:57:45.146Z,34.50
2018-08-11T13:00:14.287Z,35.30
2018-08-11T13:02:43.578Z,34.80
2018-08-11T13:05:11.989Z,32.20
2018-08-11T13:07:42.505Z,30.70
2018-08-11T13:10:12.116Z,29.80
2018-08-11T13:12:40.486Z,29.40
2018-08-11T13:15:09.085Z,29.80
2018-08-11T13:17:37.479Z,30.40
2018-08-11T13:20:06.504Z,30.10
2018-08-11T13:22:35.064Z,30.10
2018-08-11T13:25:03.638Z,30.10
2018-08-11T13:27:32.706Z,30.10
2018-08-11T13:30:01.100Z,30.30
2018-08-11T13:32:29.852Z,29.60
2018-08-11T13:34:58.486Z,28.60
2018-08-11T13:37:26.970Z,27.70
2018-08-11T13:39:55.430Z,26.70
2018-08-11T13:42:23.926Z,28.00
2018-08-11T13:44:52.380Z,28.40
2018-08-11T13:47:20.906Z,28.50
2018-08-11T13:49:49.637Z,30.20
2018-08-11T13:52:18.006Z,30.80
2018-08-11T13:54:46.415Z,30.10
2018-08-11T13:57:14.811Z,29.00
2018-08-11T13:59:43.297Z,28.60
2018-08-11T14:02:11.744Z,28.90
2018-08-11T14:04:40.172Z,30.50
2018-08-11T14:07:08.624Z,32.20
2018-08-11T14:09:37.271Z,32.90
2018-08-11T14:12:05.729Z,32.40
2018-08-11T14:14:34.166Z,31.90
2018-08-11T14:17:02.600Z,31.40
2018-08-11T14:19:31.051Z,30.90
2018-08-11T14:21:59.608Z,29.50
2018-08-11T14:24:28.008Z,29.10
2018-08-11T14:26:56.408Z,29.30
2018-08-11T14:29:24.790Z,29.40
2018-08-11T14:31:53.243Z,29.30
2018-08-11T14:34:21.693Z,29.20
2018-08-11T14:36:50.098Z,28.90
2018-08-11T14:39:18.528Z,28.70
2018-08-11T14:41:46.989Z,28.50
2018-08-11T14:44:15.536Z,27.80
2018-08-11T14:46:44.040Z,27.90
2018-08-11T14:49:12.396Z,27.80
2018-08-11T14:51:40.937Z,28.00
2018-08-11T14:54:09.421Z,28.40
2018-08-11T14:56:37.898Z,29.00
2018-08-11T14:59:06.296Z,29.50
2018-08-11T15:01:34.819Z,30.10
2018-08-11T15:04:03.239Z,29.80
2018-08-11T15:06:31.717Z,30.10
2018-08-11T15:09:00.161Z,30.20
2018-08-11T15:11:28.528Z,30.50
2018-08-11T15:13:57.041Z,30.40
2018-08-11T15:16:25.684Z,30.20
2018-08-11T15:18:53.967Z,30.00
2018-08-11T15:21:22.445Z,29.60
2018-08-11T15:23:50.876Z,28.80
2018-08-11T15:26:19.304Z,28.10
2018-08-11T15:28:47.792Z,27.90
2018-08-11T15:31:16.205Z,27.80
2018-08-11T15:33:44.771Z,27.90
2018-08-11T15:36:13.245Z,28.00
2018-08-11T15:38:41.729Z,27.90
2018-08-11T15:41:10.130Z,28.10
2018-08-11T15:43:38.555Z,28.10
2018-08-11T15:46:07.040Z,27.90
2018-08-11T15:48:35.477Z,27.90
2018-08-11T15:51:34.740Z,28.20
2018-08-11T15:54:03.213Z,28.40
2018-08-11T15:56:31.619Z,28.50
2018-08-11T15:59:00.000Z,28.50
2018-08-11T16:01:28.447Z,28.50
2018-08-11T16:03:56.913Z,28.30
2018-08-11T16:06:25.379Z,28.20
2018-08-11T16:08:53.765Z,28.10
2018-08-11T16:11:22.231Z,28.20
2018-08-11T16:13:50.712Z,28.10
2018-08-11T16:16:19.109Z,27.90
2018-08-11T16:18:47.542Z,27.80
2018-08-11T16:21:17.115Z,27.70
2018-08-11T16:23:45.639Z,27.70
2018-08-11T16:26:14.063Z,27.50
2018-08-11T16:28:42.464Z,27.10
2018-08-11T16:31:11.122Z,26.80
2018-08-11T16:33:39.567Z,26.40
2018-08-11T16:36:07.910Z,26.10
2018-08-11T16:38:36.301Z,25.80
2018-08-11T16:41:04.797Z,25.70
2018-08-11T16:43:33.296Z,25.80
2018-08-11T16:46:02.688Z,25.90
2018-08-11T16:48:31.665Z,26.00
2018-08-11T16:51:00.459Z,26.00
2018-08-11T16:53:32.133Z,25.90
2018-08-11T16:56:00.547Z,26.10
2018-08-11T16:58:28.969Z,26.60
2018-08-11T17:00:58.419Z,27.30
2018-08-11T17:03:26.932Z,27.70
2018-08-11T17:06:07.055Z,28.70
2018-08-11T17:08:36.084Z,29.30
2018-08-11T17:11:04.565Z,29.50
2018-08-11T17:13:33.026Z,29.10
2018-08-11T17:16:01.400Z,29.00
2018-08-11T17:18:29.987Z,28.60
2018-08-11T17:20:58.651Z,28.20
2018-08-11T17:23:27.398Z,27.80
2018-08-11T17:25:56.995Z,27.70
2018-08-11T17:28:25.565Z,27.90
2018-08-11T17:30:53.976Z,28.10
2018-08-11T17:33:22.447Z,27.90
2018-08-11T17:35:50.891Z,27.40
2018-08-11T17:38:19.323Z,27.00
2018-08-11T17:40:47.690Z,26.40
2018-08-11T17:43:16.109Z,25.90
2018-08-11T17:45:44.624Z,25.40
2018-08-11T17:48:13.111Z,25.20
2018-08-11T17:50:41.509Z,25.00
2018-08-11T17:53:09.956Z,24.80
2018-08-11T17:55:38.413Z,24.70
2018-08-11T17:58:06.807Z,24.60
2018-08-11T18:00:35.717Z,24.50
2018-08-11T18:03:04.172Z,24.40
2018-08-11T18:05:32.569Z,24.30
2018-08-11T18:08:01.064Z,24.20
2018-08-11T18:10:29.533Z,24.10
2018-08-11T18:12:57.967Z,24.00
2018-08-11T18:15:26.502Z,23.90
2018-08-11T18:17:55.012Z,23.80
2018-08-11T18:20:23.505Z,23.80
2018-08-11T18:22:51.926Z,23.70
2018-08-11T18:25:20.354Z,23.60
2018-08-11T18:27:48.813Z,23.50
2018-08-11T18:30:17.286Z,23.40
2018-08-11T18:32:45.758Z,23.40
2018-08-11T18:35:14.544Z,23.30
2018-08-11T18:37:42.976Z,23.20
2018-08-11T18:40:11.422Z,23.10
2018-08-11T18:42:39.837Z,23.10
2018-08-11T18:45:08.332Z,23.00
2018-08-11T18:47:36.756Z,22.90
2018-08-11T18:50:05.284Z,22.80
2018-08-11T18:52:33.767Z,22.70
2018-08-11T18:55:02.349Z,22.60
2018-08-11T18:57:30.878Z,22.50
2018-08-11T18:59:59.292Z,22.40
2018-08-11T19:02:28.913Z,22.30
2018-08-11T19:04:57.425Z,22.20
2018-08-11T19:07:26.085Z,22.10
2018-08-11T19:09:54.592Z,22.00
2018-08-11T19:12:23.105Z,22.00
2018-08-11T19:14:51.768Z,21.90
2018-08-11T19:22:25.268Z,21.70
2018-08-11T19:24:53.812Z,21.40
2018-08-11T19:27:22.210Z,21.20
2018-08-11T19:29:50.659Z,21.00
2018-08-11T19:32:19.072Z,20.90
2018-08-11T19:34:47.497Z,20.80
2018-08-11T19:37:16.928Z,20.70
2018-08-11T19:39:45.443Z,20.60
2018-08-11T19:42:13.867Z,20.50
2018-08-11T19:44:42.408Z,20.40
2018-08-11T19:47:10.872Z,20.30
2018-08-11T19:49:39.404Z,20.30
2018-08-11T19:52:07.849Z,20.20
2018-08-11T19:54:36.311Z,20.10
2018-08-11T19:57:04.923Z,20.00
2018-08-11T19:59:33.708Z,20.00
2018-08-11T20:02:02.212Z,20.00
2018-08-11T20:04:39.688Z,19.90
2018-08-11T20:07:08.210Z,19.90
2018-08-11T20:09:36.688Z,19.90
2018-08-11T20:12:05.304Z,19.80
2018-08-11T20:14:33.704Z,19.80
2018-08-11T20:17:02.197Z,19.80
2018-08-11T20:19:30.683Z,19.80
2018-08-11T20:22:10.493Z,19.80
2018-08-11T20:24:38.949Z,19.70
2018-08-11T20:27:07.708Z,19.70
2018-08-11T20:29:36.893Z,19.60
2018-08-11T20:32:05.320Z,19.50
2018-08-11T20:34:34.229Z,19.40
2018-08-11T20:37:02.722Z,19.30
2018-08-11T20:39:31.236Z,19.30
2018-08-11T20:41:59.760Z,19.20
2018-08-11T20:44:28.345Z,19.20
2018-08-11T20:46:56.825Z,19.10
2018-08-11T20:49:25.403Z,19.00
2018-08-11T20:51:53.851Z,18.90
2018-08-11T20:54:22.459Z,18.80
2018-08-11T20:56:56.777Z,18.70
2018-08-11T20:59:26.735Z,18.70
2018-08-11T21:01:55.292Z,18.60
2018-08-11T21:04:23.922Z,18.60
2018-08-11T21:06:52.473Z,18.50
2018-08-11T21:09:20.884Z,18.50
2018-08-11T21:11:49.376Z,18.50
2018-08-11T21:14:17.958Z,18.40
2018-08-11T21:22:31.811Z,18.30
2018-08-11T21:25:00.294Z,18.20
2018-08-11T21:27:28.749Z,18.20
2018-08-11T21:29:57.209Z,18.20
2018-08-11T21:32:25.734Z,18.10
2018-08-11T21:34:54.184Z,18.00
2018-08-11T21:37:23.574Z,17.90
2018-08-11T21:39:52.086Z,17.80
2018-08-11T21:42:20.589Z,17.70
2018-08-11T21:44:49.068Z,17.70
2018-08-11T21:47:17.548Z,17.70
2018-08-11T21:49:46.007Z,17.60
2018-08-11T21:52:14.533Z,17.60
2018-08-11T21:54:48.547Z,17.50
2018-08-11T21:57:17.013Z,17.50
2018-08-11T21:59:45.552Z,17.60
2018-08-11T22:02:13.974Z,17.70
2018-08-11T22:04:42.420Z,17.80
2018-08-11T22:07:13.877Z,17.80
2018-08-11T22:09:42.445Z,17.70
2018-08-11T22:12:18.121Z,17.60
2018-08-11T22:14:49.338Z,17.50
2018-08-11T22:17:17.829Z,17.40
2018-08-11T22:19:46.448Z,17.40
2018-08-11T22:22:14.972Z,17.40
2018-08-11T22:24:43.482Z,17.40
2018-08-11T22:27:12.741Z,17.40
2018-08-11T22:29:41.256Z,17.40
2018-08-11T22:32:09.760Z,17.50
2018-08-11T22:34:38.605Z,17.50
2018-08-11T22:37:07.103Z,17.60
2018-08-11T22:39:35.543Z,17.60
2018-08-11T22:42:04.000Z,17.50
2018-08-11T22:44:32.460Z,17.50
2018-08-11T22:47:00.919Z,17.50
2018-08-11T22:49:29.341Z,17.50
2018-08-11T22:51:57.835Z,17.50
2018-08-11T22:54:26.261Z,17.50
2018-08-11T22:56:54.708Z,17.40
2018-08-11T22:59:23.131Z,17.40
2018-08-11T23:01:52.661Z,17.40
2018-08-11T23:04:21.221Z,17.30
2018-08-11T23:06:49.713Z,17.20
2018-08-11T23:09:18.138Z,17.10
2018-08-11T23:11:46.636Z,16.90
2018-08-11T23:14:15.096Z,16.80
2018-08-11T23:16:43.655Z,16.80
2018-08-11T23:19:12.143Z,16.70
2018-08-11T23:21:40.579Z,16.60
2018-08-11T23:24:09.418Z,16.50
2018-08-11T23:26:37.958Z,16.40
2018-08-11T23:29:06.591Z,16.40
2018-08-11T23:31:35.068Z,16.40
2018-08-11T23:34:03.555Z,16.30
2018-08-11T23:36:32.017Z,16.30
2018-08-11T23:39:00.502Z,16.20
2018-08-11T23:41:29.043Z,16.10
2018-08-11T23:43:57.507Z,16.00
2018-08-11T23:46:28.602Z,15.90
2018-08-11T23:48:59.165Z,15.80
2018-08-11T23:51:27.922Z,15.80
2018-08-11T23:53:56.587Z,15.80
2018-08-11T23:56:27.098Z,15.80
2018-08-11T23:58:55.785Z,15.80
